sensor_id;sensor_type;location;lat;lon;timestamp;P1;durP1;ratioP1;P2;durP2;ratioP2
29414;SDS011;20303;48.302;11.914;2023-09-19T00:00:00;1.70;;;1.10;;
29414;SDS011;20303;48.302;11.914;2023-09-19T00:10:01;2.08;;;1.20;;
29414;SDS011;20303;48.302;11.914;2023-09-19T00:20:04;1.27;;;1.17;;
29414;SDS011;20303;48.302;11.914;2023-09-19T00:30:12;1.80;;;1.15;;
29414;SDS011;20303;48.302;11.914;2023-09-19T00:40:20;1.98;;;1.20;;
29414;SDS011;20303;48.302;11.914;2023-09-19T00:50:22;1.88;;;1.13;;
29414;SDS011;20303;48.302;11.914;2023-09-19T01:00:25;3.05;;;1.30;;
29414;SDS011;20303;48.302;11.914;2023-09-19T01:10:26;1.27;;;1.10;;
29414;SDS011;20303;48.302;11.914;2023-09-19T01:30:47;1.77;;;1.17;;
29414;SDS011;20303;48.302;11.914;2023-09-19T01:41:03;2.45;;;1.27;;
29414;SDS011;20303;48.302;11.914;2023-09-19T01:51:13;1.65;;;1.20;;
29414;SDS011;20303;48.302;11.914;2023-09-19T02:01:22;1.48;;;1.20;;
29414;SDS011;20303;48.302;11.914;2023-09-19T02:11:24;2.05;;;1.10;;
29414;SDS011;20303;48.302;11.914;2023-09-19T02:21:25;2.03;;;1.20;;
29414;SDS011;20303;48.302;11.914;2023-09-19T02:31:29;1.50;;;1.05;;
29414;SDS011;20303;48.302;11.914;2023-09-19T02:41:30;1.48;;;1.17;;
29414;SDS011;20303;48.302;11.914;2023-09-19T02:51:33;2.05;;;1.50;;
29414;SDS011;20303;48.302;11.914;2023-09-19T03:01:34;1.77;;;1.10;;
29414;SDS011;20303;48.302;11.914;2023-09-19T03:11:37;1.15;;;1.05;;
29414;SDS011;20303;48.302;11.914;2023-09-19T03:21:42;1.98;;;1.23;;
29414;SDS011;20303;48.302;11.914;2023-09-19T03:31:43;2.00;;;1.33;;
29414;SDS011;20303;48.302;11.914;2023-09-19T03:41:44;1.38;;;1.10;;
29414;SDS011;20303;48.302;11.914;2023-09-19T03:51:45;1.20;;;1.10;;
29414;SDS011;20303;48.302;11.914;2023-09-19T04:01:46;1.45;;;1.10;;
29414;SDS011;20303;48.302;11.914;2023-09-19T04:11:47;1.27;;;1.10;;
29414;SDS011;20303;48.302;11.914;2023-09-19T04:21:50;1.48;;;1.20;;
29414;SDS011;20303;48.302;11.914;2023-09-19T04:31:51;1.88;;;1.10;;
29414;SDS011;20303;48.302;11.914;2023-09-19T04:41:52;1.77;;;1.20;;
29414;SDS011;20303;48.302;11.914;2023-09-19T04:51:53;1.65;;;1.27;;
29414;SDS011;20303;48.302;11.914;2023-09-19T05:01:55;1.67;;;1.20;;
29414;SDS011;20303;48.302;11.914;2023-09-19T05:11:56;2.50;;;1.15;;
29414;SDS011;20303;48.302;11.914;2023-09-19T05:21:58;2.85;;;1.38;;
29414;SDS011;20303;48.302;11.914;2023-09-19T05:31:59;5.38;;;1.40;;
29414;SDS011;20303;48.302;11.914;2023-09-19T05:42:00;3.95;;;1.60;;
29414;SDS011;20303;48.302;11.914;2023-09-19T05:52:01;6.18;;;1.70;;
29414;SDS011;20303;48.302;11.914;2023-09-19T06:02:02;4.50;;;1.55;;
29414;SDS011;20303;48.302;11.914;2023-09-19T06:12:05;7.32;;;1.88;;
29414;SDS011;20303;48.302;11.914;2023-09-19T06:22:06;3.97;;;1.50;;
29414;SDS011;20303;48.302;11.914;2023-09-19T06:32:08;3.25;;;1.48;;
29414;SDS011;20303;48.302;11.914;2023-09-19T06:42:10;3.05;;;1.60;;
29414;SDS011;20303;48.302;11.914;2023-09-19T06:52:11;1.95;;;1.50;;
29414;SDS011;20303;48.302;11.914;2023-09-19T07:02:13;1.92;;;1.42;;
29414;SDS011;20303;48.302;11.914;2023-09-19T07:12:14;2.42;;;1.60;;
29414;SDS011;20303;48.302;11.914;2023-09-19T07:22:15;2.90;;;1.30;;
29414;SDS011;20303;48.302;11.914;2023-09-19T07:32:16;2.13;;;1.38;;
29414;SDS011;20303;48.302;11.914;2023-09-19T07:42:17;2.05;;;1.40;;
29414;SDS011;20303;48.302;11.914;2023-09-19T07:52:18;2.40;;;1.20;;
29414;SDS011;20303;48.302;11.914;2023-09-19T08:02:22;2.22;;;1.30;;
29414;SDS011;20303;48.302;11.914;2023-09-19T08:12:23;2.10;;;1.40;;
29414;SDS011;20303;48.302;11.914;2023-09-19T08:22:24;1.70;;;1.20;;
29414;SDS011;20303;48.302;11.914;2023-09-19T08:32:28;2.10;;;1.10;;
29414;SDS011;20303;48.302;11.914;2023-09-19T08:42:29;1.67;;;1.30;;
29414;SDS011;20303;48.302;11.914;2023-09-19T08:52:36;1.42;;;1.00;;
29414;SDS011;20303;48.302;11.914;2023-09-19T09:02:41;1.60;;;1.10;;
29414;SDS011;20303;48.302;11.914;2023-09-19T09:12:44;2.70;;;1.20;;
29414;SDS011;20303;48.302;11.914;2023-09-19T09:22:55;1.75;;;1.17;;
29414;SDS011;20303;48.302;11.914;2023-09-19T09:33:07;3.20;;;0.90;;
29414;SDS011;20303;48.302;11.914;2023-09-19T09:43:44;1.30;;;1.00;;
29414;SDS011;20303;48.302;11.914;2023-09-19T09:53:40;1.70;;;1.15;;
29414;SDS011;20303;48.302;11.914;2023-09-19T10:03:42;1.40;;;0.95;;
29414;SDS011;20303;48.302;11.914;2023-09-19T10:13:47;2.13;;;1.00;;
29414;SDS011;20303;48.302;11.914;2023-09-19T10:23:48;2.25;;;1.00;;
29414;SDS011;20303;48.302;11.914;2023-09-19T10:33:52;3.40;;;1.30;;
29414;SDS011;20303;48.302;11.914;2023-09-19T10:43:55;4.80;;;1.20;;
29414;SDS011;20303;48.302;11.914;2023-09-19T10:53:59;3.92;;;1.10;;
29414;SDS011;20303;48.302;11.914;2023-09-19T11:24:29;1.55;;;1.00;;
29414;SDS011;20303;48.302;11.914;2023-09-19T11:34:39;2.15;;;1.05;;
29414;SDS011;20303;48.302;11.914;2023-09-19T11:44:41;1.63;;;0.93;;
29414;SDS011;20303;48.302;11.914;2023-09-19T11:54:42;1.60;;;0.98;;
29414;SDS011;20303;48.302;11.914;2023-09-19T12:04:45;1.52;;;0.90;;
29414;SDS011;20303;48.302;11.914;2023-09-19T12:14:49;1.48;;;0.93;;
29414;SDS011;20303;48.302;11.914;2023-09-19T12:24:51;2.17;;;0.90;;
29414;SDS011;20303;48.302;11.914;2023-09-19T12:34:54;1.40;;;1.00;;
29414;SDS011;20303;48.302;11.914;2023-09-19T12:44:55;1.10;;;0.90;;
29414;SDS011;20303;48.302;11.914;2023-09-19T12:54:57;2.45;;;1.05;;
29414;SDS011;20303;48.302;11.914;2023-09-19T13:04:58;3.05;;;1.10;;
29414;SDS011;20303;48.302;11.914;2023-09-19T13:15:08;1.55;;;1.10;;
29414;SDS011;20303;48.302;11.914;2023-09-19T13:25:14;2.10;;;1.15;;
29414;SDS011;20303;48.302;11.914;2023-09-19T13:35:18;2.63;;;1.20;;
29414;SDS011;20303;48.302;11.914;2023-09-19T13:45:19;1.70;;;1.20;;
29414;SDS011;20303;48.302;11.914;2023-09-19T13:55:22;4.30;;;1.40;;
29414;SDS011;20303;48.302;11.914;2023-09-19T14:05:25;2.83;;;1.08;;
29414;SDS011;20303;48.302;11.914;2023-09-19T14:15:27;1.50;;;1.10;;
29414;SDS011;20303;48.302;11.914;2023-09-19T14:25:34;2.08;;;1.15;;
29414;SDS011;20303;48.302;11.914;2023-09-19T14:35:36;2.95;;;1.13;;
29414;SDS011;20303;48.302;11.914;2023-09-19T14:45:38;2.63;;;1.27;;
29414;SDS011;20303;48.302;11.914;2023-09-19T14:55:40;3.83;;;1.33;;
29414;SDS011;20303;48.302;11.914;2023-09-19T15:05:44;54.35;;;4.93;;
29414;SDS011;20303;48.302;11.914;2023-09-19T15:15:45;14.40;;;2.42;;
29414;SDS011;20303;48.302;11.914;2023-09-19T15:25:48;6.97;;;1.60;;
29414;SDS011;20303;48.302;11.914;2023-09-19T15:35:49;5.07;;;1.40;;
29414;SDS011;20303;48.302;11.914;2023-09-19T15:45:50;2.78;;;1.40;;
29414;SDS011;20303;48.302;11.914;2023-09-19T15:55:51;2.38;;;1.52;;
29414;SDS011;20303;48.302;11.914;2023-09-19T16:05:52;2.47;;;1.50;;
29414;SDS011;20303;48.302;11.914;2023-09-19T16:15:53;2.63;;;1.60;;
29414;SDS011;20303;48.302;11.914;2023-09-19T16:26:05;3.45;;;2.63;;
29414;SDS011;20303;48.302;11.914;2023-09-19T16:36:12;6.38;;;1.70;;
29414;SDS011;20303;48.302;11.914;2023-09-19T16:46:14;2.85;;;1.85;;
29414;SDS011;20303;48.302;11.914;2023-09-19T16:56:19;3.22;;;1.40;;
29414;SDS011;20303;48.302;11.914;2023-09-19T17:06:20;5.72;;;1.50;;
29414;SDS011;20303;48.302;11.914;2023-09-19T17:16:24;3.35;;;1.80;;
29414;SDS011;20303;48.302;11.914;2023-09-19T17:26:28;6.07;;;1.92;;
29414;SDS011;20303;48.302;11.914;2023-09-19T17:36:29;7.15;;;1.90;;
29414;SDS011;20303;48.302;11.914;2023-09-19T17:46:32;6.40;;;1.98;;
29414;SDS011;20303;48.302;11.914;2023-09-19T17:56:34;9.88;;;1.80;;
29414;SDS011;20303;48.302;11.914;2023-09-19T18:06:36;3.72;;;1.85;;
29414;SDS011;20303;48.302;11.914;2023-09-19T18:16:38;2.90;;;2.08;;
29414;SDS011;20303;48.302;11.914;2023-09-19T18:26:40;3.28;;;1.95;;
29414;SDS011;20303;48.302;11.914;2023-09-19T18:36:41;5.32;;;2.20;;
29414;SDS011;20303;48.302;11.914;2023-09-19T18:46:43;4.63;;;2.47;;
29414;SDS011;20303;48.302;11.914;2023-09-19T18:56:44;4.03;;;2.00;;
29414;SDS011;20303;48.302;11.914;2023-09-19T19:06:46;4.57;;;1.90;;
29414;SDS011;20303;48.302;11.914;2023-09-19T19:16:47;5.40;;;1.98;;
29414;SDS011;20303;48.302;11.914;2023-09-19T19:26:48;4.07;;;1.85;;
29414;SDS011;20303;48.302;11.914;2023-09-19T19:36:49;3.72;;;1.90;;
29414;SDS011;20303;48.302;11.914;2023-09-19T19:46:50;2.28;;;1.70;;
29414;SDS011;20303;48.302;11.914;2023-09-19T19:56:51;2.95;;;1.90;;
29414;SDS011;20303;48.302;11.914;2023-09-19T20:06:53;3.38;;;1.70;;
29414;SDS011;20303;48.302;11.914;2023-09-19T20:16:55;2.30;;;1.70;;
29414;SDS011;20303;48.302;11.914;2023-09-19T20:26:59;4.45;;;1.80;;
29414;SDS011;20303;48.302;11.914;2023-09-19T20:37:01;4.85;;;2.00;;
29414;SDS011;20303;48.302;11.914;2023-09-19T20:47:02;4.25;;;2.10;;
29414;SDS011;20303;48.302;11.914;2023-09-19T20:57:05;5.05;;;2.20;;
29414;SDS011;20303;48.302;11.914;2023-09-19T21:07:06;3.90;;;2.17;;
29414;SDS011;20303;48.302;11.914;2023-09-19T21:17:07;5.70;;;2.40;;
29414;SDS011;20303;48.302;11.914;2023-09-19T21:27:08;3.33;;;2.10;;
29414;SDS011;20303;48.302;11.914;2023-09-19T21:37:10;2.97;;;1.98;;
29414;SDS011;20303;48.302;11.914;2023-09-19T21:47:14;2.50;;;1.92;;
29414;SDS011;20303;48.302;11.914;2023-09-19T21:57:15;2.00;;;1.77;;
29414;SDS011;20303;48.302;11.914;2023-09-19T22:07:16;2.22;;;1.80;;
29414;SDS011;20303;48.302;11.914;2023-09-19T22:17:17;2.45;;;1.80;;
29414;SDS011;20303;48.302;11.914;2023-09-19T22:27:18;2.83;;;1.77;;
29414;SDS011;20303;48.302;11.914;2023-09-19T22:37:20;1.70;;;1.55;;
29414;SDS011;20303;48.302;11.914;2023-09-19T22:47:24;2.28;;;1.77;;
29414;SDS011;20303;48.302;11.914;2023-09-19T22:57:25;2.08;;;1.80;;
29414;SDS011;20303;48.302;11.914;2023-09-19T23:07:27;2.00;;;1.55;;
29414;SDS011;20303;48.302;11.914;2023-09-19T23:17:28;2.72;;;1.90;;
29414;SDS011;20303;48.302;11.914;2023-09-19T23:27:31;2.75;;;1.63;;
29414;SDS011;20303;48.302;11.914;2023-09-19T23:37:34;2.40;;;1.60;;
29414;SDS011;20303;48.302;11.914;2023-09-19T23:47:35;1.60;;;1.48;;
29414;SDS011;20303;48.302;11.914;2023-09-19T23:57:36;1.85;;;1.50;;
